Time;durP1;ratioP1;P1;durP2;ratioP2;P2;SDS_P1;SDS_P2;PMS_P1;PMS_P2;Temp;Humidity;BMP_temperature;BMP_pressure;BME280_temperature;BME280_humidity;BME280_pressure;Samples;Min_cycle;Max_cycle;Signal;HPM_P1;HPM_P2
2023/05/27 00:00:57;;;;;;;12.23;6.87;;;;;;;15.88;47.81;96846.34;5030440;28;20425;-70
2023/05/27 00:03:22;;;;;;;5.70;5.10;;;;;;;15.49;48.72;96841.50;5030650;28;20489;-68
2023/05/27 00:05:48;;;;;;;11.90;6.47;;;;;;;15.66;48.55;96845.84;5031205;28;20234;-69
2023/05/27 00:08:13;;;;;;;9.17;5.60;;;;;;;15.63;48.36;96836.28;5030667;28;20221;-69
2023/05/27 00:10:38;;;;;;;12.30;5.13;;;;;;;15.67;48.02;96842.28;5030518;28;20247;-70
2023/05/27 00:13:04;;;;;;;7.03;4.97;;;;;;;15.62;48.52;96839.03;5030446;28;20240;-70
2023/05/27 00:15:30;;;;;;;13.63;5.70;;;;;;;15.46;49.04;96839.91;5029992;28;20175;-69
2023/05/27 00:17:57;;;;;;;15.50;5.70;;;;;;;15.45;48.98;96838.19;5019269;28;20315;-70
2023/05/27 00:20:23;;;;;;;9.57;5.03;;;;;;;15.53;48.54;96834.28;5010359;28;20502;-68
2023/05/27 00:22:50;;;;;;;11.53;5.27;;;;;;;15.45;48.79;96843.50;5010447;28;20862;-70
2023/05/27 00:25:16;;;;;;;8.80;6.43;;;;;;;15.50;48.64;96837.09;5010338;28;20179;-69
2023/05/27 00:27:41;;;;;;;9.57;5.00;;;;;;;15.40;48.74;96834.97;5010066;28;20530;-70
2023/05/27 00:30:07;;;;;;;12.97;5.50;;;;;;;15.39;48.85;96838.53;5010192;28;20915;-69
2023/05/27 00:32:33;;;;;;;8.33;5.53;;;;;;;15.30;49.07;96844.34;5010396;28;20172;-70
2023/05/27 00:34:58;;;;;;;8.90;5.03;;;;;;;15.37;48.67;96832.47;5010003;28;20912;-69
2023/05/27 00:37:24;;;;;;;9.10;5.77;;;;;;;15.12;49.19;96845.34;5009821;28;20673;-71
2023/05/27 00:39:49;;;;;;;12.80;4.87;;;;;;;15.10;49.45;96844.59;5009927;28;20538;-70
2023/05/27 00:42:16;;;;;;;9.47;5.57;;;;;;;15.03;49.53;96836.16;5009727;28;20180;-71
2023/05/27 00:44:41;;;;;;;11.60;6.03;;;;;;;14.99;49.10;96826.69;5009555;28;20184;-70
2023/05/27 00:47:07;;;;;;;9.07;5.20;;;;;;;14.92;49.39;96835.88;5009651;28;20511;-71
2023/05/27 00:49:33;;;;;;;11.13;5.50;;;;;;;14.93;49.43;96840.22;5020014;28;20195;-70
2023/05/27 00:51:59;;;;;;;11.60;4.70;;;;;;;15.03;49.12;96831.72;5029540;28;20291;-70
2023/05/27 00:54:25;;;;;;;10.57;5.40;;;;;;;14.98;49.38;96832.91;5029005;28;20423;-71
2023/05/27 00:56:51;;;;;;;9.87;5.77;;;;;;;15.04;49.08;96830.75;5029252;28;20488;-70
2023/05/27 00:59:17;;;;;;;10.00;6.50;;;;;;;15.10;49.41;96831.38;5029347;28;20869;-69
2023/05/27 01:01:43;;;;;;;7.23;4.90;;;;;;;14.92;49.34;96825.31;5029307;28;20182;-69
2023/05/27 01:04:12;;;;;;;5.90;4.30;;;;;;;14.81;49.75;96834.69;5028020;28;20437;-69
2023/05/27 01:06:47;;;;;;;11.03;5.20;;;;;;;14.72;49.80;96827.25;5028666;28;20989;-70
2023/05/27 01:09:37;;;;;;;7.47;4.40;;;;;;;14.72;50.04;96834.31;5029181;28;20483;-68
2023/05/27 01:12:39;;;;;;;9.37;5.40;;;;;;;14.85;49.64;96818.66;5029384;28;20518;-70
2023/05/27 01:15:07;;;;;;;10.93;5.10;;;;;;;14.67;49.82;96823.13;5028955;28;20405;-69
2023/05/27 01:17:37;;;;;;;9.10;5.53;;;;;;;14.79;49.56;96814.56;5021276;28;20545;-69
2023/05/27 01:20:05;;;;;;;9.67;6.00;;;;;;;14.80;49.45;96813.63;5009570;28;20565;-69
2023/05/27 01:22:31;;;;;;;7.80;4.93;;;;;;;14.68;49.99;96819.56;5009094;28;20421;-70
2023/05/27 01:24:57;;;;;;;11.53;5.33;;;;;;;14.65;50.26;96817.94;5008817;28;20411;-70
2023/05/27 01:27:26;;;;;;;5.93;4.60;;;;;;;14.60;49.95;96814.69;5026273;28;20452;-69
2023/05/27 01:29:53;;;;;;;8.60;5.40;;;;;;;14.74;49.54;96816.56;5028627;28;20541;-71
2023/05/27 01:32:25;;;;;;;5.80;4.60;;;;;;;14.57;50.15;96818.34;5028657;28;20425;-70
2023/05/27 01:35:14;;;;;;;6.37;4.60;;;;;;;14.60;49.52;96815.53;5027866;28;20720;-67
2023/05/27 01:37:42;;;;;;;13.30;5.57;;;;;;;14.54;50.27;96813.22;5027993;28;20451;-71
2023/05/27 01:40:08;;;;;;;6.03;4.70;;;;;;;14.50;50.15;96808.16;5028588;28;20501;-70
2023/05/27 01:42:39;;;;;;;8.40;5.23;;;;;;;14.42;50.35;96808.56;5026958;28;20557;-71
2023/05/27 01:45:07;;;;;;;7.73;4.90;;;;;;;14.25;50.76;96808.59;5028100;28;20410;-70
2023/05/27 01:47:33;;;;;;;12.80;6.67;;;;;;;14.39;50.50;96801.66;5028234;28;20454;-68
2023/05/27 01:49:59;;;;;;;8.77;5.23;;;;;;;14.39;50.37;96806.09;5014665;28;20956;-69
2023/05/27 01:52:25;;;;;;;9.10;5.30;;;;;;;14.40;49.90;96805.16;5008560;28;21248;-71
2023/05/27 01:54:51;;;;;;;8.63;4.57;;;;;;;14.29;50.68;96803.09;5016875;28;20431;-70
2023/05/27 01:57:17;;;;;;;10.70;4.40;;;;;;;14.29;50.32;96805.72;5027995;28;20202;-70
2023/05/27 01:59:42;;;;;;;12.67;5.63;;;;;;;14.37;50.42;96802.66;5028167;28;20207;-68
2023/05/27 02:02:09;;;;;;;7.83;4.80;;;;;;;14.25;50.43;96803.31;5028460;28;20574;-71
2023/05/27 02:04:34;;;;;;;9.83;4.90;;;;;;;14.24;50.35;96810.34;5027718;28;20172;-69
2023/05/27 02:07:00;;;;;;;9.30;4.63;;;;;;;14.17;51.18;96806.34;5027783;28;21250;-69
2023/05/27 02:09:25;;;;;;;9.37;5.47;;;;;;;14.21;51.01;96801.75;5027913;28;20202;-70
2023/05/27 02:11:51;;;;;;;9.23;5.07;;;;;;;14.09;51.34;96801.47;5027663;28;20691;-69
2023/05/27 02:14:17;;;;;;;9.27;4.23;;;;;;;14.13;51.11;96796.88;5026893;28;20744;-70
2023/05/27 02:16:43;;;;;;;13.93;5.70;;;;;;;14.02;51.19;96805.34;5027094;28;20206;-70
2023/05/27 02:19:09;;;;;;;8.27;4.50;;;;;;;14.02;51.31;96800.06;5027259;28;20298;-70
2023/05/27 02:21:35;;;;;;;5.83;4.60;;;;;;;13.98;50.92;96794.13;5027306;28;21035;-70
2023/05/27 02:24:01;;;;;;;7.57;4.93;;;;;;;13.90;51.10;96796.28;5026824;28;20821;-69
2023/05/27 02:26:27;;;;;;;8.93;5.27;;;;;;;13.83;51.15;96794.03;5027191;28;20466;-71
2023/05/27 02:28:53;;;;;;;9.23;5.17;;;;;;;13.79;51.59;96793.31;5026862;28;20426;-68
2023/05/27 02:31:18;;;;;;;9.57;4.30;;;;;;;13.76;51.95;96793.47;5027251;28;20445;-68
2023/05/27 02:33:44;;;;;;;7.70;4.70;;;;;;;13.75;51.78;96795.28;5026814;28;20266;-70
2023/05/27 02:36:10;;;;;;;6.23;4.23;;;;;;;13.88;51.31;96792.00;5027152;28;20715;-71
2023/05/27 02:38:35;;;;;;;17.43;5.20;;;;;;;13.94;51.46;96797.81;5026838;28;20203;-70
2023/05/27 02:41:01;;;;;;;11.60;5.17;;;;;;;13.95;51.00;96799.53;5027023;28;20465;-69
2023/05/27 02:43:26;;;;;;;9.40;4.77;;;;;;;14.09;50.98;96792.69;5026481;28;20226;-77
2023/05/27 02:45:52;;;;;;;8.87;4.27;;;;;;;13.93;51.57;96805.81;5026810;28;20207;-69
2023/05/27 02:48:17;;;;;;;10.20;4.40;;;;;;;13.88;50.80;96792.00;5026645;28;20182;-70
2023/05/27 02:50:42;;;;;;;20.23;5.73;;;;;;;13.87;51.59;96799.06;5018728;28;20218;-69
2023/05/27 02:53:08;;;;;;;11.60;5.20;;;;;;;13.80;51.34;96796.81;5027202;28;20235;-71
2023/05/27 02:55:33;;;;;;;9.37;4.37;;;;;;;13.90;51.42;96792.78;5026900;28;20171;-69
2023/05/27 02:57:59;;;;;;;8.43;4.40;;;;;;;13.81;51.31;96801.16;5027152;28;20564;-70
2023/05/27 03:00:25;;;;;;;13.43;5.97;;;;;;;13.80;51.69;96800.31;5027455;28;20183;-70
2023/05/27 03:02:51;;;;;;;7.03;4.40;;;;;;;13.74;51.84;96796.19;5027468;28;20172;-68
2023/05/27 03:05:16;;;;;;;7.23;4.47;;;;;;;13.66;51.92;96793.09;5026884;28;20953;-69
2023/05/27 03:07:42;;;;;;;9.63;4.23;;;;;;;13.66;52.20;96798.38;5026825;28;20200;-70
2023/05/27 03:10:07;;;;;;;12.30;5.40;;;;;;;13.71;52.22;96790.22;5015150;28;20661;-69
2023/05/27 03:12:33;;;;;;;8.00;5.27;;;;;;;13.67;51.55;96789.50;5007443;28;20220;-71
2023/05/27 03:14:59;;;;;;;7.40;4.10;;;;;;;13.74;52.03;96797.97;5007184;28;20529;-70
2023/05/27 03:17:24;;;;;;;8.97;5.00;;;;;;;13.68;51.78;96790.38;5007259;28;20212;-70
2023/05/27 03:19:50;;;;;;;9.53;4.50;;;;;;;13.67;51.26;96791.28;5007229;28;20196;-70
2023/05/27 03:22:16;;;;;;;10.07;4.43;;;;;;;13.49;51.75;96790.44;5007317;28;20195;-70
2023/05/27 03:24:41;;;;;;;7.97;4.40;;;;;;;13.52;51.70;96795.56;5007089;28;20173;-69
2023/05/27 03:27:07;;;;;;;12.83;4.40;;;;;;;13.60;51.99;96792.53;5007191;28;20771;-70
2023/05/27 03:29:32;;;;;;;19.40;5.27;;;;;;;13.63;51.47;96787.09;5010814;28;20216;-70
2023/05/27 03:31:58;;;;;;;11.07;5.40;;;;;;;13.47;52.14;96782.59;5011176;28;20203;-69
2023/05/27 03:34:23;;;;;;;17.60;6.40;;;;;;;13.64;51.06;96783.56;5011255;28;20226;-71
2023/05/27 03:36:50;;;;;;;6.73;4.13;;;;;;;13.70;50.96;96791.13;5011106;28;20552;-71
2023/05/27 03:39:16;;;;;;;9.60;5.13;;;;;;;13.62;50.82;96786.25;5011036;28;20218;-71
2023/05/27 03:41:42;;;;;;;7.50;4.37;;;;;;;13.40;51.45;96790.91;5013397;28;20419;-71
2023/05/27 03:44:07;;;;;;;7.70;4.33;;;;;;;13.55;51.01;96776.94;5014709;28;20415;-69
2023/05/27 03:46:34;;;;;;;13.97;5.50;;;;;;;13.51;51.21;96783.28;5024379;28;20453;-68
2023/05/27 03:48:59;;;;;;;8.47;4.37;;;;;;;13.63;51.13;96782.69;5030115;28;20510;-69
2023/05/27 03:51:25;;;;;;;10.50;5.33;;;;;;;13.53;51.95;96784.06;5019019;28;20563;-71
2023/05/27 03:53:51;;;;;;;20.43;4.57;;;;;;;13.68;51.18;96780.69;5030910;28;20222;-69
2023/05/27 03:56:16;;;;;;;7.30;5.27;;;;;;;13.69;50.73;96784.16;5030635;28;20222;-71
2023/05/27 03:58:42;;;;;;;9.80;5.20;;;;;;;13.77;50.67;96792.53;5030778;28;20203;-71
2023/05/27 04:01:08;;;;;;;10.90;4.17;;;;;;;13.81;50.22;96787.97;5030924;28;20179;-69
2023/05/27 04:03:34;;;;;;;11.70;5.03;;;;;;;13.76;50.65;96793.47;5027910;28;20183;-69
2023/05/27 04:05:59;;;;;;;9.70;4.80;;;;;;;13.65;50.11;96782.59;5010932;28;20709;-70
2023/05/27 04:08:28;;;;;;;11.80;4.73;;;;;;;13.76;50.34;96785.56;5010622;28;20407;-68
2023/05/27 04:10:54;;;;;;;10.50;4.40;;;;;;;13.83;50.86;96788.75;5010447;28;20177;-69
2023/05/27 04:13:19;;;;;;;16.03;5.80;;;;;;;13.89;50.15;96791.94;5010341;28;20543;-70
2023/05/27 04:15:45;;;;;;;12.37;4.83;;;;;;;13.85;50.20;96793.00;5012586;28;20443;-71
2023/05/27 04:18:11;;;;;;;10.37;5.00;;;;;;;13.75;50.52;96792.63;5029924;28;20718;-70
2023/05/27 04:20:42;;;;;;;11.67;4.60;;;;;;;13.78;50.56;96791.63;5029989;28;20418;-70
2023/05/27 04:23:08;;;;;;;7.37;4.00;;;;;;;14.06;49.43;96791.06;5029852;28;20700;-70
2023/05/27 04:25:37;;;;;;;12.40;4.60;;;;;;;14.33;49.13;96787.91;5029205;28;20497;-70
2023/05/27 04:28:06;;;;;;;5.67;3.67;;;;;;;14.46;49.09;96793.41;5029674;28;20175;-69
2023/05/27 04:30:32;;;;;;;12.13;4.63;;;;;;;14.53;48.48;96793.00;5029685;28;20497;-68
2023/05/27 04:32:59;;;;;;;15.13;4.37;;;;;;;14.65;48.03;96788.03;5029742;28;20448;-69
2023/05/27 04:35:25;;;;;;;11.00;4.13;;;;;;;14.81;47.74;96788.88;5029178;28;20414;-69
2023/05/27 04:37:51;;;;;;;11.63;4.83;;;;;;;14.67;47.81;96786.13;5029287;28;20500;-72
2023/05/27 04:40:16;;;;;;;7.43;4.30;;;;;;;14.61;48.12;96795.25;5029313;28;20465;-69
2023/05/27 04:42:43;;;;;;;12.33;5.87;;;;;;;14.67;47.79;96787.03;5029396;28;20484;-70
2023/05/27 04:45:11;;;;;;;12.53;4.70;;;;;;;14.77;47.37;96790.00;5029097;28;20179;-70
2023/05/27 04:47:37;;;;;;;6.47;4.27;;;;;;;15.07;46.73;96786.59;5029173;28;20438;-70
2023/05/27 04:50:03;;;;;;;13.03;4.90;;;;;;;14.95;47.21;96788.13;5015032;28;20403;-70
2023/05/27 04:52:29;;;;;;;10.07;4.33;;;;;;;15.03;46.85;96784.13;5014098;28;20518;-70
2023/05/27 04:54:55;;;;;;;7.40;5.00;;;;;;;15.09;47.10;96784.72;5029009;28;20417;-71
2023/05/27 04:57:23;;;;;;;11.53;5.10;;;;;;;14.71;47.57;96782.41;5017543;28;20874;-70
2023/05/27 05:02:34;;;;;;;10.97;4.37;;;;;;;15.40;46.16;96784.72;5022244;28;20775;-70
2023/05/27 05:05:10;;;;;;;6.33;4.40;;;;;;;15.16;46.24;96786.94;5028728;28;20414;-70
2023/05/27 05:07:40;;;;;;;9.97;5.00;;;;;;;15.30;46.30;96783.53;5028519;28;20999;-71
2023/05/27 05:10:07;;;;;;;8.00;5.60;;;;;;;15.48;45.68;96781.63;5028622;28;20422;-71
2023/05/27 05:12:33;;;;;;;10.50;5.20;;;;;;;15.60;45.18;96778.28;5029090;28;20843;-70
2023/05/27 05:14:59;;;;;;;7.47;4.57;;;;;;;15.58;45.63;96782.78;5020158;28;20522;-70
2023/05/27 05:17:25;;;;;;;10.77;4.50;;;;;;;15.52;45.66;96795.50;5011423;28;20564;-71
2023/05/27 05:19:54;;;;;;;11.70;4.40;;;;;;;15.61;45.13;96787.94;5013641;28;20199;-72
2023/05/27 05:22:22;;;;;;;12.23;5.50;;;;;;;15.52;45.09;96784.94;5029124;28;20203;-70
2023/05/27 05:24:48;;;;;;;12.03;5.17;;;;;;;15.44;45.79;96794.16;5028369;28;20421;-70
2023/05/27 05:27:13;;;;;;;13.23;4.37;;;;;;;15.26;45.88;96792.59;5028825;28;20430;-69
2023/05/27 05:29:39;;;;;;;9.73;5.23;;;;;;;15.22;46.18;96791.88;5029032;28;20160;-69
2023/05/27 05:32:05;;;;;;;10.80;4.20;;;;;;;15.26;46.57;96789.94;5028780;28;20171;-71
2023/05/27 05:34:30;;;;;;;8.70;5.30;;;;;;;15.11;46.75;96791.63;5028508;28;20625;-70
2023/05/27 05:36:55;;;;;;;11.33;4.83;;;;;;;15.25;46.33;96786.41;5028750;28;20195;-70
2023/05/27 05:39:21;;;;;;;6.80;3.97;;;;;;;15.46;46.36;96787.00;5028406;28;20203;-69
2023/05/27 05:41:47;;;;;;;8.83;4.63;;;;;;;15.55;46.00;96792.72;5029088;28;20172;-72
2023/05/27 05:44:13;;;;;;;14.40;5.13;;;;;;;15.42;45.75;96793.41;5028549;28;20953;-70
2023/05/27 05:46:38;;;;;;;8.73;4.67;;;;;;;15.21;46.19;96805.19;5028654;28;20199;-70
2023/05/27 05:49:05;;;;;;;10.97;4.70;;;;;;;15.51;45.82;96799.13;5021924;28;20584;-68
2023/05/27 05:51:30;;;;;;;11.23;4.60;;;;;;;15.39;46.47;96790.94;5007757;28;20234;-72
2023/05/27 05:53:57;;;;;;;9.60;7.00;;;;;;;15.62;45.97;96784.34;5007954;28;20419;-68
2023/05/27 05:56:23;;;;;;;5.83;4.47;;;;;;;15.51;45.64;96788.53;5008573;28;20210;-70
2023/05/27 05:58:48;;;;;;;19.57;5.33;;;;;;;15.86;45.24;96787.38;5009082;28;20459;-71
2023/05/27 06:01:15;;;;;;;11.67;4.53;;;;;;;16.17;45.02;96785.53;5008847;28;20172;-68
2023/05/27 06:03:40;;;;;;;8.83;3.93;;;;;;;16.05;44.70;96781.84;5009050;28;20168;-70
2023/05/27 06:06:06;;;;;;;14.30;6.03;;;;;;;15.83;45.62;96800.78;5020952;28;21335;-70
2023/05/27 06:08:31;;;;;;;13.33;5.20;;;;;;;15.37;46.42;96798.09;5028231;28;20186;-70
2023/05/27 06:10:57;;;;;;;9.33;4.80;;;;;;;15.67;45.93;96802.59;5028357;28;20179;-70
2023/05/27 06:13:22;;;;;;;6.97;4.77;;;;;;;15.82;46.29;96801.72;5028228;28;20181;-69
2023/05/27 06:15:48;;;;;;;10.87;4.17;;;;;;;15.81;46.40;96805.31;5028066;28;20179;-71
2023/05/27 06:18:13;;;;;;;7.07;5.40;;;;;;;16.12;45.38;96800.84;5027681;28;20234;-71
2023/05/27 06:20:39;;;;;;;13.70;5.50;;;;;;;15.74;45.64;96808.41;5027759;28;20245;-71
2023/05/27 06:23:05;;;;;;;8.00;4.40;;;;;;;15.59;46.28;96800.38;5027494;28;20183;-68
2023/05/27 06:25:30;;;;;;;9.57;4.73;;;;;;;15.99;45.69;96805.16;5026961;28;20180;-69
2023/05/27 06:27:56;;;;;;;6.60;4.63;;;;;;;16.29;44.78;96795.38;5027693;28;20218;-70
2023/05/27 06:30:21;;;;;;;7.40;4.73;;;;;;;16.35;45.36;96798.63;5028293;28;20241;-70
2023/05/27 06:32:47;;;;;;;12.83;5.23;;;;;;;15.71;46.38;96800.63;5028315;28;20585;-69
2023/05/27 06:35:12;;;;;;;12.03;5.03;;;;;;;16.06;46.49;96799.44;5029260;28;20282;-70
2023/05/27 06:37:37;;;;;;;12.30;5.33;;;;;;;16.45;45.47;96789.16;5024753;28;20703;-69
2023/05/27 06:40:04;;;;;;;11.57;5.00;;;;;;;16.26;44.80;96787.63;5027739;28;20206;-69
2023/05/27 06:42:29;;;;;;;8.30;4.67;;;;;;;16.01;46.10;96798.00;5028809;28;20751;-70
2023/05/27 06:44:55;;;;;;;11.00;5.23;;;;;;;16.32;45.51;96796.16;5028721;28;20489;-71
2023/05/27 06:47:21;;;;;;;11.47;7.53;;;;;;;16.20;45.55;96797.75;5029400;28;20238;-72
2023/05/27 06:49:46;;;;;;;11.87;5.73;;;;;;;16.26;46.03;96792.09;5029517;28;20171;-71
2023/05/27 06:52:11;;;;;;;7.77;5.07;;;;;;;16.62;44.82;96796.94;5028799;28;20421;-70
2023/05/27 06:54:37;;;;;;;9.77;5.40;;;;;;;16.58;45.04;96797.22;5029683;28;20249;-71
2023/05/27 06:57:03;;;;;;;9.60;6.17;;;;;;;16.79;45.14;96790.59;5030333;28;20932;-70
2023/05/27 06:59:29;;;;;;;9.87;5.17;;;;;;;16.67;44.77;96792.19;5029484;28;20686;-70
2023/05/27 07:01:56;;;;;;;9.77;5.10;;;;;;;16.68;45.19;96788.59;5029190;28;20403;-71
2023/05/27 07:04:21;;;;;;;15.37;4.50;;;;;;;16.87;44.42;96792.78;5019005;28;20195;-69
2023/05/27 07:06:47;;;;;;;13.17;7.07;;;;;;;17.33;43.79;96792.50;5024675;28;20985;-71
2023/05/27 07:09:13;;;;;;;10.70;4.87;;;;;;;17.35;43.60;96790.59;5022396;28;20169;-72
2023/05/27 07:11:39;;;;;;;8.60;5.23;;;;;;;17.36;44.02;96800.25;5009363;28;20247;-71
2023/05/27 07:14:05;;;;;;;8.50;5.23;;;;;;;17.52;43.63;96800.13;5028814;28;20441;-70
2023/05/27 07:16:30;;;;;;;11.63;4.97;;;;;;;17.64;43.31;96796.66;5030372;28;20548;-71
2023/05/27 07:18:56;;;;;;;14.53;5.57;;;;;;;17.63;43.54;96794.13;5026973;28;20294;-69
2023/05/27 07:21:21;;;;;;;12.37;6.00;;;;;;;17.88;43.07;96796.00;5027404;28;20181;-72
2023/05/27 07:23:47;;;;;;;9.87;5.47;;;;;;;17.73;43.98;96792.53;5033836;28;20195;-72
2023/05/27 07:26:12;;;;;;;15.13;6.17;;;;;;;18.12;49.17;96798.84;5034918;28;20198;-74
2023/05/27 07:28:38;;;;;;;8.97;5.17;;;;;;;18.48;42.40;96795.44;5031040;28;20164;-75
2023/05/27 07:31:04;;;;;;;14.27;5.00;;;;;;;18.05;42.45;96795.75;5032022;28;20179;-69
2023/05/27 07:33:30;;;;;;;9.77;6.20;;;;;;;18.14;42.48;96791.59;5024736;28;20178;-71
2023/05/27 07:35:55;;;;;;;8.30;5.20;;;;;;;18.05;42.49;96792.22;5031511;28;20552;-71
2023/05/27 07:38:21;;;;;;;11.23;5.90;;;;;;;18.58;41.56;96785.88;5026363;28;20199;-71
2023/05/27 07:40:46;;;;;;;14.93;5.60;;;;;;;18.47;41.91;96788.41;5027835;28;20202;-70
2023/05/27 07:43:12;;;;;;;9.43;5.60;;;;;;;17.82;42.89;96784.00;5022597;28;20184;-69
2023/05/27 07:45:37;;;;;;;20.53;7.67;;;;;;;18.18;42.71;96791.28;5022457;28;20278;-70
2023/05/27 07:48:02;;;;;;;10.87;5.97;;;;;;;18.31;42.64;96779.84;5027924;28;20182;-70
2023/05/27 07:50:28;;;;;;;10.10;6.30;;;;;;;18.73;41.02;96777.78;5020766;28;20176;-70
2023/05/27 07:52:54;;;;;;;9.43;4.90;;;;;;;18.50;41.66;96782.06;5028716;28;20594;-71
2023/05/27 07:55:19;;;;;;;16.63;6.17;;;;;;;18.65;42.13;96774.81;5030348;28;20189;-70
2023/05/27 07:57:45;;;;;;;10.90;6.20;;;;;;;18.68;41.55;96772.78;5027802;28;20291;-72
2023/05/27 08:00:10;;;;;;;13.17;6.53;;;;;;;18.50;41.94;96777.59;5025999;28;20204;-69
2023/05/27 08:02:36;;;;;;;13.63;6.10;;;;;;;18.51;42.39;96773.97;5027716;28;20203;-71
2023/05/27 08:05:03;;;;;;;8.80;5.07;;;;;;;18.90;41.62;96765.97;5030316;28;20222;-71
2023/05/27 08:07:29;;;;;;;15.27;5.70;;;;;;;18.59;42.55;96769.00;5026331;28;20282;-70
2023/05/27 08:09:55;;;;;;;9.53;5.93;;;;;;;18.69;42.20;96771.84;5028795;28;20482;-72
2023/05/27 08:12:21;;;;;;;12.83;5.77;;;;;;;18.85;42.05;96774.31;5042139;28;20191;-71
2023/05/27 08:14:47;;;;;;;9.57;6.00;;;;;;;18.50;41.95;96774.09;5040611;28;20207;-70
2023/05/27 08:17:16;;;;;;;15.63;6.23;;;;;;;19.15;41.43;96763.25;5035826;28;20265;-70
2023/05/27 08:19:41;;;;;;;11.27;5.80;;;;;;;19.21;40.80;96762.81;5035489;28;20450;-71
2023/05/27 08:22:10;;;;;;;16.13;5.27;;;;;;;19.65;40.31;96760.47;5038670;28;20421;-71
2023/05/27 08:24:36;;;;;;;10.37;5.37;;;;;;;19.88;39.38;96761.47;5031802;28;20168;-71
2023/05/27 08:27:02;;;;;;;11.87;5.87;;;;;;;20.02;39.63;96763.09;5032605;28;20596;-71
2023/05/27 08:29:30;;;;;;;14.90;7.43;;;;;;;19.49;40.26;96767.91;5033138;28;20243;-72
2023/05/27 08:31:56;;;;;;;10.67;6.37;;;;;;;19.54;40.62;96757.78;5030154;28;20406;-71
2023/05/27 08:34:22;;;;;;;12.03;5.10;;;;;;;20.56;38.81;96757.16;5025719;28;20405;-71
2023/05/27 08:36:47;;;;;;;16.50;6.27;;;;;;;20.18;39.55;96744.97;5029535;28;20294;-69
2023/05/27 08:39:13;;;;;;;11.90;5.47;;;;;;;20.19;39.90;96756.47;5029515;28;20695;-72
2023/05/27 08:41:39;;;;;;;8.03;5.40;;;;;;;19.89;40.21;96757.84;5029685;28;20178;-71
2023/05/27 08:44:06;;;;;;;10.50;5.93;;;;;;;19.64;40.80;96746.31;5028856;28;20171;-71
2023/05/27 08:46:32;;;;;;;12.13;5.50;;;;;;;19.78;40.72;96745.31;5029027;28;20442;-71
2023/05/27 08:48:58;;;;;;;21.03;7.00;;;;;;;20.18;39.79;96741.44;5024969;28;20503;-70
2023/05/27 08:51:24;;;;;;;8.70;5.90;;;;;;;19.79;40.55;96736.38;5023738;28;20443;-71
2023/05/27 08:53:49;;;;;;;16.93;5.90;;;;;;;20.15;40.03;96734.53;5020660;28;20439;-70
2023/05/27 08:56:18;;;;;;;11.70;5.83;;;;;;;20.29;40.32;96731.66;5018027;28;20677;-71
2023/05/27 08:58:44;;;;;;;9.30;6.30;;;;;;;20.02;40.01;96737.28;5028185;28;20568;-70
2023/05/27 09:01:10;;;;;;;7.70;5.93;;;;;;;20.26;39.31;96733.69;5029044;28;20402;-70
2023/05/27 09:03:36;;;;;;;12.90;7.20;;;;;;;20.06;40.29;96730.75;5028551;28;20309;-71
2023/05/27 09:06:04;;;;;;;11.53;5.90;;;;;;;19.82;40.50;96744.16;5028434;28;20662;-71
2023/05/27 09:08:30;;;;;;;13.17;6.60;;;;;;;19.66;41.37;96735.56;5027490;28;20534;-71
2023/05/27 09:10:56;;;;;;;8.77;5.80;;;;;;;19.88;40.94;96732.16;5012793;28;20418;-71
2023/05/27 09:13:29;;;;;;;10.73;7.03;;;;;;;20.17;40.28;96729.91;5028943;28;20756;-70
2023/05/27 09:16:03;;;;;;;8.00;5.67;;;;;;;20.51;40.13;96719.31;5012882;28;20207;-70
2023/05/27 09:18:33;;;;;;;10.30;7.33;;;;;;;19.88;40.90;96730.34;5013667;28;20488;-71
2023/05/27 09:20:59;;;;;;;10.43;6.03;;;;;;;19.94;40.96;96723.72;5021398;28;20450;-72
2023/05/27 09:23:25;;;;;;;12.43;7.00;;;;;;;19.36;41.45;96722.72;5023426;28;20443;-70
2023/05/27 09:25:51;;;;;;;12.77;6.40;;;;;;;20.06;41.67;96712.13;5014773;28;20227;-70
2023/05/27 09:28:26;;;;;;;8.40;5.87;;;;;;;20.60;40.29;96715.06;5022945;28;20472;-69
2023/05/27 09:31:04;;;;;;;25.00;7.93;;;;;;;20.41;40.12;96716.53;5008933;28;21174;-70
2023/05/27 09:33:35;;;;;;;9.03;6.33;;;;;;;20.30;40.19;96708.50;5016655;28;20416;-71
2023/05/27 09:36:05;;;;;;;15.47;6.20;;;;;;;20.47;39.82;96704.50;5028189;28;20810;-71
2023/05/27 09:38:35;;;;;;;9.80;7.03;;;;;;;20.61;39.83;96711.47;5027682;28;20485;-71
2023/05/27 09:41:01;;;;;;;10.30;6.67;;;;;;;20.68;39.90;96697.50;5022882;28;20421;-69
2023/05/27 09:43:28;;;;;;;10.03;6.27;;;;;;;20.63;40.55;96698.84;5009597;28;20457;-71
2023/05/27 09:46:03;;;;;;;10.00;6.83;;;;;;;19.99;40.49;96715.38;5008483;28;20541;-71
2023/05/27 09:48:32;;;;;;;8.60;6.60;;;;;;;19.89;40.58;96699.25;5020698;28;20497;-70
2023/05/27 09:50:59;;;;;;;10.90;6.00;;;;;;;20.19;41.05;96705.81;5018411;28;20431;-71
2023/05/27 09:53:26;;;;;;;11.30;6.77;;;;;;;20.45;40.52;96696.63;5026552;28;20588;-71
2023/05/27 09:55:55;;;;;;;11.83;6.03;;;;;;;20.73;39.77;96697.16;5019102;28;20928;-71
2023/05/27 09:58:22;;;;;;;14.60;7.43;;;;;;;20.17;40.27;96702.44;5018688;28;20466;-71
2023/05/27 10:00:48;;;;;;;11.80;6.83;;;;;;;19.83;41.25;96700.56;5021470;28;20473;-71
2023/05/27 10:03:16;;;;;;;9.30;7.07;;;;;;;20.01;41.61;96700.97;5017609;28;20425;-71
2023/05/27 10:05:43;;;;;;;12.20;7.40;;;;;;;20.38;40.80;96692.75;5019460;28;20488;-71
2023/05/27 10:08:08;;;;;;;15.77;8.60;;;;;;;20.77;39.73;96689.75;5019381;28;20422;-72
2023/05/27 10:10:34;;;;;;;12.33;6.53;;;;;;;20.64;40.16;96701.38;5017489;28;20435;-70
2023/05/27 10:13:01;;;;;;;13.63;7.00;;;;;;;20.62;39.94;96686.47;5027598;28;20522;-72
2023/05/27 10:15:33;;;;;;;13.80;7.20;;;;;;;20.55;39.99;96683.44;5027175;28;20190;-71
2023/05/27 10:18:01;;;;;;;13.10;7.57;;;;;;;20.64;39.65;96679.22;5017054;28;20517;-72
2023/05/27 10:20:30;;;;;;;13.30;6.60;;;;;;;21.03;39.99;96679.66;5027239;28;20422;-70
2023/05/27 10:22:57;;;;;;;11.13;7.17;;;;;;;20.91;40.12;96679.66;5028283;28;20422;-72
2023/05/27 10:25:35;;;;;;;9.93;6.50;;;;;;;21.08;39.17;96678.28;5027881;28;20919;-71
2023/05/27 10:28:00;;;;;;;10.67;6.70;;;;;;;20.81;37.78;96685.84;5027762;28;20425;-73
2023/05/27 10:30:26;;;;;;;17.90;7.67;;;;;;;20.47;38.54;96689.38;5027576;28;20422;-72
2023/05/27 10:32:53;;;;;;;15.90;7.60;;;;;;;20.52;39.50;96676.50;5028450;28;20176;-73
2023/05/27 10:35:19;;;;;;;15.57;6.47;;;;;;;20.83;38.82;96665.25;5026874;28;20422;-71
2023/05/27 10:37:46;;;;;;;13.87;6.50;;;;;;;20.90;38.31;96669.09;5026831;28;20456;-72
2023/05/27 10:40:12;;;;;;;8.60;6.70;;;;;;;21.09;38.54;96663.13;5027657;28;20205;-70
2023/05/27 10:42:38;;;;;;;11.27;7.10;;;;;;;20.76;38.67;96677.38;5026770;28;20418;-71
2023/05/27 10:45:10;;;;;;;11.40;6.63;;;;;;;20.69;38.81;96675.22;5026542;28;20171;-71
2023/05/27 10:47:36;;;;;;;15.93;7.77;;;;;;;20.77;38.52;96673.75;5027419;28;20446;-70
2023/05/27 10:50:13;;;;;;;12.07;6.50;;;;;;;21.01;38.43;96658.41;5027363;28;20422;-70
2023/05/27 10:52:40;;;;;;;13.20;6.93;;;;;;;21.00;37.79;96669.19;5027237;28;20171;-70
2023/05/27 10:55:06;;;;;;;9.67;6.73;;;;;;;20.87;37.73;96669.38;5026066;28;20508;-71
2023/05/27 10:57:32;;;;;;;9.23;6.27;;;;;;;20.98;37.21;96672.00;5026932;28;20466;-71
2023/05/27 11:00:09;;;;;;;13.00;6.10;;;;;;;21.17;36.55;96657.16;5026522;28;20532;-71
2023/05/27 11:02:36;;;;;;;12.47;6.93;;;;;;;21.29;36.50;96673.00;5022219;28;20187;-71
2023/05/27 11:05:08;;;;;;;9.40;6.23;;;;;;;21.28;36.33;96657.09;5019164;28;20418;-69
2023/05/27 11:07:36;;;;;;;12.97;6.60;;;;;;;21.27;36.57;96666.94;5026943;28;20505;-70
2023/05/27 11:10:02;;;;;;;12.83;6.67;;;;;;;21.13;36.53;96660.06;5026354;28;20426;-71
2023/05/27 11:12:27;;;;;;;12.77;6.63;;;;;;;20.96;37.14;96667.78;5026614;28;20472;-71
2023/05/27 11:14:55;;;;;;;9.10;5.73;;;;;;;20.66;37.55;96661.28;5026665;28;20171;-70
2023/05/27 11:17:21;;;;;;;10.67;6.33;;;;;;;20.54;38.73;96651.56;5027003;28;20594;-70
2023/05/27 11:19:47;;;;;;;17.23;7.00;;;;;;;20.86;38.27;96647.19;5026723;28;21017;-70
2023/05/27 11:22:17;;;;;;;12.37;6.63;;;;;;;21.20;37.85;96655.06;5030452;28;20426;-72
2023/05/27 11:24:43;;;;;;;8.53;6.40;;;;;;;21.23;36.76;96646.81;5042509;28;20671;-71
2023/05/27 11:27:15;;;;;;;11.40;8.87;;;;;;;21.14;37.58;96642.22;5024870;28;20482;-69
2023/05/27 11:29:50;;;;;;;12.40;6.10;;;;;;;21.21;37.79;96643.41;5012892;28;20411;-72